Time;durP1;ratioP1;P1;durP2;ratioP2;P2;SDS_P1;SDS_P2;PMS_P1;PMS_P2;Temp;Humidity;BMP_temperature;BMP_pressure;BME280_temperature;BME280_humidity;BME280_pressure;Samples;Min_cycle;Max_cycle;Signal;HPM_P1;HPM_P2
2019/08/09 00:00:23;;;;;;;3.7;3.1;;;;;;;18.68;76.0127;959.0101;;;;
2019/08/09 00:02:48;;;;;;;3.8;3.3;;;;;;;18.76;76.09863;959.0524;;;;
2019/08/09 00:05:14;;;;;;;5.7;3.6;;;;;;;18.86;75.84375;959.0212;;;;
2019/08/09 00:07:39;;;;;;;5;3.6;;;;;;;18.84;75.05664;959.0389;;;;
2019/08/09 00:10:04;;;;;;;3.9;3.3;;;;;;;18.77;75.05469;958.9927;;;;
2019/08/09 00:12:29;;;;;;;3.7;3.3;;;;;;;18.83;75.2041;958.9913;;;;
2019/08/09 00:14:54;;;;;;;4.7;3.3;;;;;;;18.75;75.76563;958.9815;;;;
2019/08/09 00:17:19;;;;;;;4;3.3;;;;;;;18.75;75.73047;958.9352;;;;
2019/08/09 00:19:44;;;;;;;4.5;3.6;;;;;;;18.7;76.0625;958.9185;;;;
2019/08/09 00:22:09;;;;;;;4.7;3.8;;;;;;;18.71;75.9248;958.8975;;;;
2019/08/09 00:24:34;;;;;;;4.8;3.7;;;;;;;18.67;76.39746;958.8428;;;;
2019/08/09 00:27:00;;;;;;;5.4;3.6;;;;;;;18.71;76.18262;958.7844;;;;
2019/08/09 00:29:25;;;;;;;4;3.6;;;;;;;18.76;75.39258;958.7173;;;;
2019/08/09 00:31:51;;;;;;;5.5;3.9;;;;;;;18.7;77.04688;958.707;;;;
2019/08/09 00:34:16;;;;;;;4.1;3.5;;;;;;;18.61;77.83008;958.6687;;;;
2019/08/09 00:36:41;;;;;;;4.2;3.5;;;;;;;18.61;77.36133;958.6661;;;;
2019/08/09 00:39:06;;;;;;;5;3.4;;;;;;;18.67;77.19629;958.6108;;;;
2019/08/09 00:41:31;;;;;;;5;3.4;;;;;;;18.75;76.78711;958.623;;;;
2019/08/09 00:43:57;;;;;;;4.6;3.4;;;;;;;18.62;77.87891;958.5057;;;;
2019/08/09 00:46:22;;;;;;;5;3.6;;;;;;;18.57;77.56641;958.5137;;;;
2019/08/09 00:48:47;;;;;;;4.7;3.7;;;;;;;18.55;78.4541;958.5786;;;;
2019/08/09 00:51:12;;;;;;;5;3.9;;;;;;;18.41;79.97363;958.5367;;;;
2019/08/09 00:53:37;;;;;;;6.3;4;;;;;;;18.41;78.94238;958.5558;;;;
2019/08/09 00:56:02;;;;;;;5.2;3.9;;;;;;;18.39;79.44336;958.4981;;;;
2019/08/09 00:58:27;;;;;;;5.9;4.2;;;;;;;18.31;79.24121;958.5159;;;;
2019/08/09 01:00:52;;;;;;;4.1;3.7;;;;;;;18.31;79.28906;958.5422;;;;
2019/08/09 01:03:18;;;;;;;7.2;4.1;;;;;;;18.33;79.48047;958.5153;;;;
2019/08/09 01:05:43;;;;;;;5.1;4.4;;;;;;;18.35;79.08496;958.5111;;;;
2019/08/09 01:08:08;;;;;;;5.1;4.6;;;;;;;18.3;79.50879;958.5339;;;;
2019/08/09 01:10:34;;;;;;;4.6;4.2;;;;;;;18.26;79.68848;958.438;;;;
2019/08/09 01:12:59;;;;;;;6.1;4.6;;;;;;;18.27;80.05273;958.4412;;;;
2019/08/09 01:15:24;;;;;;;5.7;4.7;;;;;;;18.21;80.53516;958.3989;;;;
2019/08/09 01:17:49;;;;;;;6.3;4.5;;;;;;;18.1;80.19922;958.3914;;;;
2019/08/09 01:20:14;;;;;;;6.1;4.1;;;;;;;18.19;80.54199;958.4214;;;;
2019/08/09 01:22:39;;;;;;;5.6;4.1;;;;;;;18.2;81.29297;958.4091;;;;
2019/08/09 01:25:11;;;;;;;5.8;4.3;;;;;;;18.08;80.74414;958.4634;;;;
2019/08/09 01:27:30;;;;;;;5.6;4;;;;;;;18.07;81.64453;958.471;;;;
2019/08/09 01:29:55;;;;;;;5.6;4.6;;;;;;;18.08;81.0625;958.4501;;;;
2019/08/09 01:32:20;;;;;;;5.1;4.5;;;;;;;17.99;81.20801;958.4694;;;;
2019/08/09 01:34:46;;;;;;;5.7;4.4;;;;;;;18.01;80.20605;958.4428;;;;
2019/08/09 01:37:11;;;;;;;7.3;4.5;;;;;;;17.96;80.93359;958.4542;;;;
2019/08/09 01:39:36;;;;;;;7.2;4.2;;;;;;;17.9;81.26172;958.4391;;;;
2019/08/09 01:42:01;;;;;;;5.2;4.3;;;;;;;17.94;80.48438;958.4451;;;;
2019/08/09 01:44:26;;;;;;;5.3;4.2;;;;;;;17.77;81.70801;958.3894;;;;
2019/08/09 01:46:51;;;;;;;5.7;4.1;;;;;;;17.89;81.29492;958.3676;;;;
2019/08/09 01:49:16;;;;;;;5;3.9;;;;;;;17.76;82.2998;958.3619;;;;
2019/08/09 01:51:41;;;;;;;5.1;4.2;;;;;;;17.73;81.7334;958.3284;;;;
2019/08/09 01:54:06;;;;;;;5.2;4;;;;;;;17.68;81.68848;958.3553;;;;
2019/08/09 01:56:32;;;;;;;5.6;4.2;;;;;;;17.72;81.70801;958.351;;;;
2019/08/09 01:58:57;;;;;;;6.4;4.3;;;;;;;17.6;82.21094;958.3769;;;;
2019/08/09 02:01:22;;;;;;;5.6;4.1;;;;;;;17.59;83.19434;958.401;;;;
2019/08/09 02:03:48;;;;;;;5.9;4.3;;;;;;;17.58;82.08105;958.4;;;;
2019/08/09 02:06:13;;;;;;;6.6;4;;;;;;;17.48;82.68262;958.421;;;;
2019/08/09 02:08:38;;;;;;;6.6;4.4;;;;;;;17.46;81.95215;958.4425;;;;
2019/08/09 02:11:04;;;;;;;4.6;3.9;;;;;;;17.49;82.75391;958.4396;;;;
2019/08/09 02:13:29;;;;;;;5.2;4.1;;;;;;;17.51;82.15137;958.4626;;;;
2019/08/09 02:15:54;;;;;;;5;4.1;;;;;;;17.49;83.10547;958.522;;;;
2019/08/09 02:18:19;;;;;;;6.5;4.4;;;;;;;17.37;82.53223;958.524;;;;
2019/08/09 02:20:44;;;;;;;5.1;4.3;;;;;;;17.47;82.78418;958.491;;;;
2019/08/09 02:23:09;;;;;;;5.4;4;;;;;;;17.5;81.69141;958.5304;;;;
2019/08/09 02:25:35;;;;;;;4.4;4;;;;;;;17.48;82.00293;958.5701;;;;
2019/08/09 02:28:00;;;;;;;6;4.2;;;;;;;17.4;82.30273;958.5428;;;;
2019/08/09 02:30:25;;;;;;;6.9;4.5;;;;;;;17.45;81.59961;958.5992;;;;
2019/08/09 02:32:50;;;;;;;5.6;4.6;;;;;;;17.41;81.55859;958.634;;;;
2019/08/09 02:35:15;;;;;;;5;4.4;;;;;;;17.31;82.11133;958.5897;;;;
2019/08/09 02:37:40;;;;;;;5.8;4.4;;;;;;;17.23;82.37793;958.5666;;;;
2019/08/09 02:40:05;;;;;;;5.8;4.3;;;;;;;17.24;82.06445;958.5779;;;;
2019/08/09 02:42:30;;;;;;;5.4;4.4;;;;;;;17.25;81.7959;958.5681;;;;
2019/08/09 02:44:56;;;;;;;5.2;4.4;;;;;;;17.22;82.20117;958.5229;;;;
2019/08/09 02:47:21;;;;;;;5;4.1;;;;;;;17.29;82.26172;958.5373;;;;
2019/08/09 02:49:46;;;;;;;5.6;4.6;;;;;;;17.33;81.8125;958.4858;;;;
2019/08/09 02:52:58;;;;;;;6.3;4.9;;;;;;;17.3;82.03906;958.4631;;;;
2019/08/09 02:55:01;;;;;;;5.4;4.4;;;;;;;17.34;80.97168;958.4698;;;;
2019/08/09 02:57:02;;;;;;;6.8;4.5;;;;;;;17.25;81.09375;958.4841;;;;
2019/08/09 02:59:27;;;;;;;7.5;4.6;;;;;;;17.18;82.14648;958.5193;;;;
2019/08/09 03:01:52;;;;;;;5.5;4.5;;;;;;;17.29;80.78711;958.5217;;;;
2019/08/09 03:04:17;;;;;;;5.4;4.4;;;;;;;17.26;81.15625;958.4838;;;;
2019/08/09 03:06:42;;;;;;;4.8;4.3;;;;;;;17.21;81.29785;958.4836;;;;
2019/08/09 03:09:07;;;;;;;7.8;4.3;;;;;;;17.26;81.22656;958.4928;;;;
2019/08/09 03:11:33;;;;;;;5.1;4.6;;;;;;;17.22;81.04297;958.4858;;;;
2019/08/09 03:13:58;;;;;;;5.1;4.6;;;;;;;17.16;80.77344;958.5128;;;;
2019/08/09 03:16:23;;;;;;;5.6;4.6;;;;;;;17.16;81.20801;958.4905;;;;
2019/08/09 03:18:48;;;;;;;6.4;4.8;;;;;;;17.16;81.29004;958.4451;;;;
2019/08/09 03:21:13;;;;;;;6.5;4.6;;;;;;;17.13;81.22461;958.4249;;;;
2019/08/09 03:23:38;;;;;;;7.1;4.6;;;;;;;17.13;81.63379;958.4413;;;;
2019/08/09 03:26:03;;;;;;;5.6;4.4;;;;;;;17.19;81.24805;958.4598;;;;
2019/08/09 03:28:28;;;;;;;5.4;4.4;;;;;;;17.08;82.33594;958.5009;;;;
2019/08/09 03:30:53;;;;;;;6.4;4.9;;;;;;;16.96;81.94238;958.5178;;;;
2019/08/09 03:33:19;;;;;;;7.3;5.2;;;;;;;16.9;82.03613;958.51;;;;
2019/08/09 03:35:44;;;;;;;5.9;4.7;;;;;;;16.88;82.75488;958.5933;;;;
2019/08/09 03:38:09;;;;;;;7.5;5.2;;;;;;;16.83;82.61816;958.6017;;;;
2019/08/09 03:40:34;;;;;;;5.9;4.7;;;;;;;16.92;81.95703;958.5963;;;;
2019/08/09 03:42:59;;;;;;;8.1;4.9;;;;;;;16.85;81.70996;958.605;;;;
2019/08/09 03:45:24;;;;;;;6.2;4.9;;;;;;;16.83;82.08105;958.5737;;;;
2019/08/09 03:47:50;;;;;;;4.9;4.4;;;;;;;16.92;82.44727;958.55;;;;
2019/08/09 03:50:15;;;;;;;6.6;5;;;;;;;16.83;82.89746;958.4997;;;;
2019/08/09 03:52:40;;;;;;;7.7;5.1;;;;;;;16.83;82.4209;958.5555;;;;
2019/08/09 03:55:05;;;;;;;5.5;4.7;;;;;;;16.8;82.11035;958.5558;;;;
2019/08/09 03:57:30;;;;;;;7.7;4.7;;;;;;;16.83;83.01465;958.5811;;;;
2019/08/09 03:59:55;;;;;;;6.1;4.8;;;;;;;16.89;82.67578;958.6202;;;;
2019/08/09 04:02:27;;;;;;;5.1;4.6;;;;;;;16.86;82.87012;958.6376;;;;
2019/08/09 04:04:52;;;;;;;7.1;5.1;;;;;;;16.74;82.42578;958.6686;;;;
2019/08/09 04:07:17;;;;;;;5.7;4.7;;;;;;;16.78;82.53711;958.6127;;;;
2019/08/09 04:09:42;;;;;;;7.1;4.9;;;;;;;16.7;84.70703;958.6024;;;;
2019/08/09 04:12:08;;;;;;;6.5;4.6;;;;;;;16.74;83.67285;958.6061;;;;
2019/08/09 04:14:33;;;;;;;6.1;4.9;;;;;;;16.73;83.50781;958.6434;;;;
2019/08/09 04:16:58;;;;;;;7.3;4.7;;;;;;;16.75;83.01074;958.6718;;;;
2019/08/09 04:19:23;;;;;;;6.4;4.7;;;;;;;16.63;82.82617;958.6635;;;;
2019/08/09 04:21:48;;;;;;;8.2;4.9;;;;;;;16.65;83.02734;958.6479;;;;
2019/08/09 04:24:13;;;;;;;9.2;5.1;;;;;;;16.64;83.71289;958.6323;;;;
2019/08/09 04:26:38;;;;;;;6.4;5;;;;;;;16.63;83.23438;958.6071;;;;
2019/08/09 04:29:03;;;;;;;6.9;4.7;;;;;;;16.6;83.28711;958.5701;;;;
2019/08/09 04:31:28;;;;;;;8;5;;;;;;;16.71;83.21484;958.5519;;;;
2019/08/09 04:33:53;;;;;;;6.5;4.9;;;;;;;16.68;83.2793;958.5481;;;;
2019/08/09 04:36:18;;;;;;;6.7;4.8;;;;;;;16.64;83.3291;958.5352;;;;
2019/08/09 04:38:43;;;;;;;6.4;5;;;;;;;16.64;83.14063;958.5839;;;;
2019/08/09 04:41:08;;;;;;;5.4;4.7;;;;;;;16.63;83.2207;958.6035;;;;
2019/08/09 04:43:34;;;;;;;5.8;4.8;;;;;;;16.62;83.9541;958.6283;;;;
2019/08/09 04:45:59;;;;;;;5.6;4.6;;;;;;;16.65;83.33105;958.6033;;;;
2019/08/09 04:48:24;;;;;;;7.7;5;;;;;;;16.7;83.14063;958.6592;;;;
2019/08/09 04:50:49;;;;;;;6.5;4.9;;;;;;;16.67;83.27637;958.6824;;;;
2019/08/09 04:53:14;;;;;;;7;4.8;;;;;;;16.76;83.24609;958.678;;;;
2019/08/09 04:55:39;;;;;;;5.6;4.8;;;;;;;16.7;83.39941;958.6278;;;;
2019/08/09 04:58:04;;;;;;;5.7;4.7;;;;;;;16.74;82.73926;958.6071;;;;
2019/08/09 05:00:36;;;;;;;5.4;4.7;;;;;;;16.79;82.58594;958.6161;;;;
2019/08/09 05:02:55;;;;;;;5.9;4.9;;;;;;;16.8;82.99609;958.6448;;;;
2019/08/09 05:05:20;;;;;;;5.2;4.7;;;;;;;16.8;83.58008;958.6481;;;;
2019/08/09 05:07:45;;;;;;;5.3;4.7;;;;;;;16.81;83.30273;958.6182;;;;
2019/08/09 05:10:10;;;;;;;7.1;4.8;;;;;;;16.84;83.43652;958.5984;;;;
2019/08/09 05:12:35;;;;;;;7.4;4.7;;;;;;;16.84;83.28516;958.5961;;;;
2019/08/09 05:15:00;;;;;;;6.7;4.9;;;;;;;16.88;83.20996;958.5734;;;;
2019/08/09 05:17:26;;;;;;;5;4.2;;;;;;;16.91;82.5625;958.5346;;;;
2019/08/09 05:19:51;;;;;;;6.1;4.9;;;;;;;17.01;83.11914;958.6136;;;;
2019/08/09 05:22:16;;;;;;;7.7;4.7;;;;;;;17.12;82.69531;958.5577;;;;
2019/08/09 05:24:41;;;;;;;6.4;5.1;;;;;;;17.15;81.80176;958.5574;;;;
2019/08/09 05:27:06;;;;;;;6.7;4.6;;;;;;;17.18;81.64355;958.5588;;;;
2019/08/09 05:29:31;;;;;;;7.2;4.9;;;;;;;17.17;82.10938;958.5697;;;;
2019/08/09 05:31:56;;;;;;;6;5;;;;;;;17.17;82.13281;958.5587;;;;
2019/08/09 05:34:22;;;;;;;6.1;4.8;;;;;;;17.25;81.24805;958.5705;;;;
2019/08/09 05:36:47;;;;;;;7.1;5;;;;;;;17.22;81.94238;958.5698;;;;
2019/08/09 05:39:12;;;;;;;6.2;5;;;;;;;17.28;81.7666;958.5627;;;;
2019/08/09 05:41:37;;;;;;;7.9;5.5;;;;;;;17.22;81.94434;958.5632;;;;
2019/08/09 05:44:02;;;;;;;6.6;5.1;;;;;;;17.31;81.30469;958.5854;;;;
2019/08/09 05:46:27;;;;;;;6.9;4.7;;;;;;;17.53;80.09668;958.6075;;;;
2019/08/09 05:48:52;;;;;;;8.7;5;;;;;;;17.5;81.11914;958.6351;;;;
2019/08/09 05:51:18;;;;;;;6.6;4.6;;;;;;;17.59;81.22852;958.5895;;;;
2019/08/09 05:53:43;;;;;;;6.3;4.9;;;;;;;17.7;80.5;958.5974;;;;
2019/08/09 05:56:08;;;;;;;6.7;5.2;;;;;;;17.67;79.14941;958.6472;;;;
2019/08/09 05:58:33;;;;;;;6.5;5.1;;;;;;;17.9;79.39063;958.6699;;;;
2019/08/09 06:00:58;;;;;;;7;4.7;;;;;;;17.97;79.30859;958.6716;;;;
2019/08/09 06:03:23;;;;;;;7.9;5.1;;;;;;;18.04;78.93457;958.6783;;;;
2019/08/09 06:05:49;;;;;;;8.8;5.2;;;;;;;18.2;76.08301;958.6813;;;;
2019/08/09 06:10:39;;;;;;;6.5;4.5;;;;;;;18.42;76.44922;958.6611;;;;
2019/08/09 06:13:04;;;;;;;8.5;5.7;;;;;;;18.47;75.80078;958.6655;;;;
2019/08/09 06:15:29;;;;;;;7.8;5;;;;;;;18.57;76.87305;958.6772;;;;
2019/08/09 06:17:54;;;;;;;7.3;4.8;;;;;;;18.66;75.77637;958.7172;;;;
2019/08/09 06:20:19;;;;;;;9.7;5;;;;;;;18.71;74.66992;958.7118;;;;
2019/08/09 06:22:44;;;;;;;8.3;5;;;;;;;18.77;75.73438;958.6881;;;;
2019/08/09 06:25:12;;;;;;;7.3;4.5;;;;;;;18.84;76.47559;958.7397;;;;
2019/08/09 06:27:37;;;;;;;6.3;4.4;;;;;;;18.98;75.41992;958.6743;;;;
2019/08/09 06:30:02;;;;;;;7.9;4.8;;;;;;;19.04;76.97949;958.6947;;;;
2019/08/09 06:32:27;;;;;;;5.2;4.1;;;;;;;19.14;75.6582;958.6361;;;;
2019/08/09 06:34:52;;;;;;;7.7;4.8;;;;;;;19.21;74.82422;958.646;;;;
2019/08/09 06:37:17;;;;;;;7.4;4.5;;;;;;;19.26;74.63379;958.5961;;;;
2019/08/09 06:39:42;;;;;;;6.3;4.8;;;;;;;19.38;74.30273;958.5676;;;;
2019/08/09 06:42:07;;;;;;;5.5;4.5;;;;;;;19.46;73.80957;958.5938;;;;
2019/08/09 06:44:32;;;;;;;6.5;4.6;;;;;;;19.53;73.51563;958.5685;;;;
2019/08/09 06:46:57;;;;;;;6.2;4.1;;;;;;;19.6;73.99805;958.4969;;;;
2019/08/09 06:49:23;;;;;;;7.7;4;;;;;;;19.73;73.72656;958.4602;;;;
2019/08/09 06:51:48;;;;;;;5.2;3.9;;;;;;;19.83;72.94336;958.5006;;;;
2019/08/09 06:54:13;;;;;;;8.9;4.3;;;;;;;19.91;73.20215;958.4883;;;;
2019/08/09 06:56:38;;;;;;;6.2;4.4;;;;;;;19.93;73.93555;958.449;;;;
2019/08/09 06:59:03;;;;;;;6.7;4.3;;;;;;;20.05;72.17969;958.4534;;;;
2019/08/09 07:01:28;;;;;;;6.7;4.2;;;;;;;20.13;72.21582;958.3918;;;;
2019/08/09 07:03:53;;;;;;;5.6;4.1;;;;;;;20.2;74.05176;958.4196;;;;
2019/08/09 07:06:18;;;;;;;6.1;4.4;;;;;;;20.32;72.10742;958.356;;;;
2019/08/09 07:08:44;;;;;;;6;4.4;;;;;;;20.43;72.10059;958.3353;;;;
2019/08/09 07:11:09;;;;;;;7.1;4.6;;;;;;;20.56;69.99023;958.3379;;;;
2019/08/09 07:13:34;;;;;;;7;4.2;;;;;;;20.76;68.38574;958.3175;;;;
2019/08/09 07:15:59;;;;;;;4.3;3.9;;;;;;;20.75;70.49219;958.3117;;;;
2019/08/09 07:18:24;;;;;;;5;3.8;;;;;;;20.73;70.22949;958.3215;;;;
2019/08/09 07:20:49;;;;;;;4.5;3.8;;;;;;;20.9;69.27832;958.3084;;;;
2019/08/09 07:23:15;;;;;;;6;3.9;;;;;;;21.05;68.37109;958.3438;;;;
2019/08/09 07:25:40;;;;;;;5.5;4.1;;;;;;;21.05;68.31055;958.2684;;;;
2019/08/09 07:28:05;;;;;;;5.3;4.2;;;;;;;21.15;67.90234;958.1617;;;;
2019/08/09 07:30:42;;;;;;;5;4.1;;;;;;;21.2;67.45117;958.1526;;;;
2019/08/09 07:33:07;;;;;;;6.9;4.1;;;;;;;21.24;68.9668;958.1519;;;;
2019/08/09 07:35:32;;;;;;;5.4;3.8;;;;;;;21.21;68.53711;958.1442;;;;
2019/08/09 07:37:57;;;;;;;4.7;3.8;;;;;;;21.21;69.33887;958.1825;;;;
2019/08/09 07:40:23;;;;;;;4.6;3.7;;;;;;;21.31;67.63184;958.1145;;;;
2019/08/09 07:42:48;;;;;;;5.5;4;;;;;;;21.37;67.62988;958.1282;;;;
2019/08/09 07:45:13;;;;;;;6.5;4;;;;;;;21.44;68.20605;958.1387;;;;
2019/08/09 07:47:38;;;;;;;4.9;3.6;;;;;;;21.47;68.42383;958.0352;;;;
2019/08/09 07:50:03;;;;;;;7.1;4;;;;;;;21.66;67.21387;958.0302;;;;
2019/08/09 07:52:28;;;;;;;5.1;3.9;;;;;;;21.79;66.1709;957.9097;;;;
2019/08/09 07:54:53;;;;;;;6.9;4.1;;;;;;;21.87;65.34473;957.9207;;;;
2019/08/09 07:57:18;;;;;;;5.5;3.6;;;;;;;21.94;65.54297;957.8791;;;;
2019/08/09 07:59:43;;;;;;;4.4;3.6;;;;;;;21.86;64.78809;957.8801;;;;
2019/08/09 08:02:08;;;;;;;5.3;3.8;;;;;;;21.9;62.58496;957.9274;;;;
2019/08/09 08:04:33;;;;;;;4.2;3.3;;;;;;;21.86;65.37891;957.9224;;;;
2019/08/09 08:06:58;;;;;;;5.5;3.9;;;;;;;21.87;65.88672;957.9068;;;;
2019/08/09 08:09:23;;;;;;;4.7;3.7;;;;;;;21.95;65.17969;957.9073;;;;
2019/08/09 08:11:48;;;;;;;5.7;3.6;;;;;;;22.02;66.65332;957.8475;;;;
2019/08/09 08:14:14;;;;;;;3.9;3.5;;;;;;;22.08;65.89453;957.856;;;;
2019/08/09 08:16:39;;;;;;;4.8;3.8;;;;;;;22.18;63.78223;957.8589;;;;
2019/08/09 08:19:04;;;;;;;5;3.4;;;;;;;22.31;63.64648;957.8477;;;;
2019/08/09 08:21:30;;;;;;;4.5;3.3;;;;;;;22.33;64.63184;957.8372;;;;
2019/08/09 08:23:55;;;;;;;4;3.2;;;;;;;22.49;62.82031;957.8456;;;;
2019/08/09 08:26:20;;;;;;;4.7;3.7;;;;;;;22.49;63.05859;957.8205;;;;
2019/08/09 08:28:45;;;;;;;5.6;3.5;;;;;;;22.6;61.25195;957.838;;;;
2019/08/09 08:31:10;;;;;;;4.4;2.8;;;;;;;22.64;61.87305;957.7751;;;;
2019/08/09 08:33:36;;;;;;;4;3.4;;;;;;;22.7;63.52539;957.8359;;;;
2019/08/09 08:36:01;;;;;;;6.7;3.7;;;;;;;22.86;61.14551;957.7859;;;;
2019/08/09 08:38:26;;;;;;;3.8;3.4;;;;;;;22.92;61.94727;957.8205;;;;
2019/08/09 08:40:57;;;;;;;4.8;3.6;;;;;;;23.06;61.59961;957.7556;;;;
2019/08/09 08:43:22;;;;;;;3.9;3.6;;;;;;;23.07;62.48828;957.7719;;;;
2019/08/09 08:45:47;;;;;;;3.6;3.3;;;;;;;23.2;61.71387;957.7341;;;;
2019/08/09 08:48:12;;;;;;;4.5;3.1;;;;;;;23.38;62.23633;957.7133;;;;
2019/08/09 08:50:37;;;;;;;5;3.4;;;;;;;23.41;63.80566;957.6803;;;;
2019/08/09 08:53:02;;;;;;;4.7;3.2;;;;;;;23.45;63.52734;957.6675;;;;
2019/08/09 08:55:27;;;;;;;4.2;3.2;;;;;;;23.69;60.92871;957.6899;;;;
2019/08/09 08:57:52;;;;;;;3.9;3.2;;;;;;;23.89;60.43359;957.6788;;;;
2019/08/09 09:00:18;;;;;;;3.7;3.4;;;;;;;23.74;61.93164;957.6433;;;;
2019/08/09 09:02:43;;;;;;;4.1;3.3;;;;;;;23.79;62.05664;957.6617;;;;
2019/08/09 09:05:08;;;;;;;4.7;3.4;;;;;;;23.91;60.53027;957.6548;;;;
2019/08/09 09:07:33;;;;;;;3.9;3.1;;;;;;;24.03;57.40234;957.6677;;;;
2019/08/09 09:09:58;;;;;;;3.2;2.9;;;;;;;24.3;57.44824;957.6813;;;;
2019/08/09 09:12:23;;;;;;;4.5;2.9;;;;;;;24.54;55.68555;957.709;;;;
2019/08/09 09:14:49;;;;;;;4.2;2.8;;;;;;;24.54;55.88867;957.7011;;;;
2019/08/09 09:17:14;;;;;;;4.2;3.2;;;;;;;24.43;57.37109;957.6778;;;;
2019/08/09 09:19:39;;;;;;;6.9;3.3;;;;;;;24.38;58.77832;957.6414;;;;
2019/08/09 09:22:04;;;;;;;4.5;3.4;;;;;;;24.28;60.08301;957.6091;;;;
2019/08/09 09:24:29;;;;;;;5.1;2.8;;;;;;;24.33;58.9248;957.6342;;;;
2019/08/09 09:26:55;;;;;;;4.4;3;;;;;;;24.43;57.16797;957.5948;;;;
2019/08/09 09:29:20;;;;;;;4.1;2.8;;;;;;;24.44;58.13281;957.5786;;;;
2019/08/09 09:31:45;;;;;;;4.3;3.2;;;;;;;24.6;59.13965;957.5504;;;;
2019/08/09 09:34:10;;;;;;;5;3.4;;;;;;;24.6;57.75;957.5304;;;;
2019/08/09 09:36:35;;;;;;;4.7;3;;;;;;;24.66;55.97461;957.4492;;;;
2019/08/09 09:39:02;;;;;;;3.4;3.1;;;;;;;24.7;56.08594;957.4141;;;;
2019/08/09 09:41:45;;;;;;;5.2;3;;;;;;;24.81;56.46875;957.3986;;;;
2019/08/09 09:43:50;;;;;;;3.9;3;;;;;;;24.97;55.33398;957.4133;;;;
2019/08/09 09:46:16;;;;;;;2.9;2.6;;;;;;;25.01;52.7832;957.4959;;;;
2019/08/09 09:48:41;;;;;;;4;2.8;;;;;;;25.15;51.88379;957.5661;;;;
2019/08/09 09:51:06;;;;;;;4;2.8;;;;;;;25.4;51.94727;957.5117;;;;
2019/08/09 09:53:43;;;;;;;4;2.8;;;;;;;25.29;52.85156;957.5311;;;;
2019/08/09 09:56:08;;;;;;;3.7;2.9;;;;;;;25.36;52.7168;957.5623;;;;
2019/08/09 09:58:33;;;;;;;5.2;2.8;;;;;;;25.37;54.82617;957.5485;;;;
2019/08/09 10:00:59;;;;;;;4;2.7;;;;;;;25.57;52.39648;957.6077;;;;
2019/08/09 10:03:24;;;;;;;4.1;2.8;;;;;;;25.77;51.68066;957.5941;;;;
2019/08/09 10:05:49;;;;;;;3.6;3;;;;;;;26.01;51.32813;957.6041;;;;
2019/08/09 10:08:14;;;;;;;3.6;2.8;;;;;;;26.06;51.66797;957.6096;;;;
2019/08/09 10:10:39;;;;;;;3.5;2.9;;;;;;;25.94;53.16602;957.57;;;;
2019/08/09 10:13:04;;;;;;;3.7;3;;;;;;;25.93;52.71289;957.5753;;;;
2019/08/09 10:15:29;;;;;;;3.6;2.5;;;;;;;26.02;51.73438;957.5468;;;;
2019/08/09 10:17:54;;;;;;;3.6;2.8;;;;;;;26.43;48.95313;957.5334;;;;
2019/08/09 10:20:19;;;;;;;3.2;2.9;;;;;;;26.54;49.03613;957.5913;;;;
2019/08/09 10:22:44;;;;;;;3.8;2.9;;;;;;;26.71;47.94531;957.5611;;;;
2019/08/09 10:25:10;;;;;;;4.3;2.7;;;;;;;26.85;47.70898;957.5579;;;;
2019/08/09 10:27:35;;;;;;;4.3;2.7;;;;;;;26.79;47.53613;957.5706;;;;
2019/08/09 10:30:00;;;;;;;3.3;2.8;;;;;;;26.84;46.86133;957.6284;;;;
2019/08/09 10:32:25;;;;;;;4.1;2.6;;;;;;;26.7;46.67969;957.6436;;;;
2019/08/09 10:34:50;;;;;;;2.8;2.4;;;;;;;26.74;46.46777;957.5639;;;;
2019/08/09 10:37:15;;;;;;;4.4;2.5;;;;;;;26.77;46.25586;957.5407;;;;
2019/08/09 10:39:40;;;;;;;3.4;2.6;;;;;;;27.17;44.98242;957.5126;;;;
2019/08/09 10:42:05;;;;;;;5.2;2.7;;;;;;;26.87;47.54492;957.4791;;;;
2019/08/09 10:44:30;;;;;;;3;2.7;;;;;;;26.77;48.14258;957.4557;;;;
2019/08/09 10:46:55;;;;;;;3.3;2.5;;;;;;;27.15;46.18848;957.4899;;;;
2019/08/09 10:49:20;;;;;;;3.7;2.4;;;;;;;27.72;45.24121;957.4827;;;;
2019/08/09 10:51:45;;;;;;;8.4;2.6;;;;;;;27.77;44.01367;957.4778;;;;
2019/08/09 10:54:11;;;;;;;14.6;3.3;;;;;;;27.58;46.20801;957.4203;;;;
2019/08/09 10:56:36;;;;;;;3.5;2.4;;;;;;;27.54;48.64453;957.4658;;;;
2019/08/09 10:59:01;;;;;;;4.8;2.5;;;;;;;28.01;43.31934;957.4182;;;;
2019/08/09 11:01:26;;;;;;;3.1;2.4;;;;;;;27.88;45.03027;957.3781;;;;
2019/08/09 11:03:51;;;;;;;4.3;2.3;;;;;;;27.99;43.24609;957.3376;;;;
2019/08/09 11:06:16;;;;;;;6.1;5.3;;;;;;;27.89;45.68945;957.3401;;;;
2019/08/09 11:08:41;;;;;;;4.9;3.5;;;;;;;27.73;45.20703;957.3748;;;;
2019/08/09 11:11:06;;;;;;;3.4;2.9;;;;;;;27.68;46.21875;957.365;;;;
2019/08/09 11:13:31;;;;;;;6.9;5.2;;;;;;;27.75;45.06543;957.3376;;;;
2019/08/09 11:15:56;;;;;;;6.4;5;;;;;;;27.8;44.55469;957.3015;;;;
2019/08/09 11:18:21;;;;;;;3.3;2.1;;;;;;;27.89;44.88672;957.303;;;;
2019/08/09 11:20:46;;;;;;;3.1;2.1;;;;;;;28.28;42.11133;957.2794;;;;
2019/08/09 11:23:11;;;;;;;3;2.3;;;;;;;28.33;43.7334;957.285;;;;
2019/08/09 11:25:37;;;;;;;5.7;3;;;;;;;28.14;44.54102;957.212;;;;
2019/08/09 11:28:02;;;;;;;3.7;2.7;;;;;;;28.36;44.13184;957.1536;;;;
2019/08/09 11:30:27;;;;;;;2.9;2.3;;;;;;;28.31;46.79785;957.2117;;;;
2019/08/09 11:32:52;;;;;;;5.3;2.7;;;;;;;28.03;44.96094;957.1038;;;;
2019/08/09 11:35:17;;;;;;;2.5;2.3;;;;;;;28.11;45.20898;957.1406;;;;
2019/08/09 11:37:42;;;;;;;3.7;2.2;;;;;;;28.39;43.0918;957.1603;;;;
2019/08/09 11:40:07;;;;;;;3.3;2;;;;;;;28.49;42.77734;957.1047;;;;
2019/08/09 11:42:32;;;;;;;2.7;1.9;;;;;;;28.71;42.27148;957.1627;;;;
2019/08/09 11:44:57;;;;;;;2.8;2;;;;;;;28.83;42.43848;957.1906;;;;
2019/08/09 11:47:23;;;;;;;2.2;2;;;;;;;29.07;41.35645;957.175;;;;
2019/08/09 11:49:48;;;;;;;2.7;2;;;;;;;29.27;41.73535;957.1602;;;;
2019/08/09 11:52:13;;;;;;;2.5;2;;;;;;;29.18;39.73438;957.0642;;;;
2019/08/09 11:54:38;;;;;;;2.3;2;;;;;;;29.1;42.00684;957.0712;;;;
2019/08/09 11:57:03;;;;;;;3.3;2.2;;;;;;;28.91;42.76953;957.1011;;;;
2019/08/09 11:59:28;;;;;;;1.9;1.7;;;;;;;29.27;41.53125;957.0818;;;;
2019/08/09 12:01:53;;;;;;;2.2;1.8;;;;;;;29.06;42.8916;957.0505;;;;
2019/08/09 12:04:18;;;;;;;2.9;2.3;;;;;;;29.06;44.76465;957.0633;;;;
2019/08/09 12:06:43;;;;;;;2.3;1.7;;;;;;;29.33;40.2998;956.9969;;;;
2019/08/09 12:09:08;;;;;;;2.3;1.9;;;;;;;29.46;40.98438;956.9899;;;;
2019/08/09 12:11:34;;;;;;;1.9;1.7;;;;;;;29.66;40.5459;956.9894;;;;
2019/08/09 12:13:59;;;;;;;2.1;1.7;;;;;;;29.64;39.7627;956.9666;;;;
2019/08/09 12:16:24;;;;;;;2;1.8;;;;;;;29.67;43.28613;956.9182;;;;
2019/08/09 12:18:49;;;;;;;2;1.8;;;;;;;30.06;39.36621;956.9001;;;;
2019/08/09 12:21:14;;;;;;;2.3;1.8;;;;;;;30.18;40.61621;956.8853;;;;
2019/08/09 12:23:39;;;;;;;1.9;1.7;;;;;;;30.12;39.13184;956.8892;;;;
2019/08/09 12:26:04;;;;;;;2.9;1.7;;;;;;;30.26;38.67383;956.8433;;;;
2019/08/09 12:28:29;;;;;;;3.2;1.7;;;;;;;30.27;39.5293;956.759;;;;
2019/08/09 12:30:54;;;;;;;1.8;1.7;;;;;;;30.53;38.88965;956.771;;;;
2019/08/09 12:33:20;;;;;;;1.7;1.6;;;;;;;30.7;38.5791;956.7551;;;;
2019/08/09 12:35:45;;;;;;;2.4;1.9;;;;;;;30.43;39.11133;956.7134;;;;
2019/08/09 12:38:10;;;;;;;2.1;1.7;;;;;;;30.62;38.44043;956.733;;;;
2019/08/09 12:40:35;;;;;;;3.3;1.7;;;;;;;30.56;37.62891;956.7209;;;;
2019/08/09 12:43:00;;;;;;;3.5;1.6;;;;;;;30.62;38.95898;956.6944;;;;
2019/08/09 12:45:25;;;;;;;2.3;1.6;;;;;;;30.71;38.18262;956.6961;;;;
2019/08/09 12:47:50;;;;;;;3.3;2;;;;;;;30.95;38.46777;956.7459;;;;
2019/08/09 12:50:15;;;;;;;2.3;1.8;;;;;;;31.02;39.24512;956.6888;;;;
2019/08/09 12:52:40;;;;;;;2.7;1.7;;;;;;;31.21;37.1875;956.7325;;;;
2019/08/09 12:55:05;;;;;;;1.8;1.6;;;;;;;31.43;37.64063;956.6915;;;;
2019/08/09 12:57:31;;;;;;;2.2;1.7;;;;;;;31.32;36.96777;956.6544;;;;
2019/08/09 12:59:56;;;;;;;2;1.5;;;;;;;31.47;36.4248;956.6609;;;;
2019/08/09 13:02:21;;;;;;;2;1.7;;;;;;;31.41;37.26465;956.6628;;;;
2019/08/09 13:04:46;;;;;;;1.7;1.3;;;;;;;31.28;37.96484;956.6158;;;;
2019/08/09 13:07:11;;;;;;;1.8;1.4;;;;;;;31.41;37.75879;956.6425;;;;
2019/08/09 13:09:36;;;;;;;1.9;1.5;;;;;;;31.66;36.33203;956.582;;;;
2019/08/09 13:12:01;;;;;;;1.4;1.3;;;;;;;31.83;36.61035;956.5433;;;;
2019/08/09 13:14:26;;;;;;;1.9;1.3;;;;;;;31.69;35.39258;956.4426;;;;
2019/08/09 13:16:51;;;;;;;1.4;1.3;;;;;;;31.71;35.32129;956.5162;;;;
2019/08/09 13:19:16;;;;;;;2;1.3;;;;;;;31.61;35.45898;956.5275;;;;
2019/08/09 13:21:41;;;;;;;2.7;1.6;;;;;;;31.67;36.32129;956.4733;;;;
2019/08/09 13:24:06;;;;;;;3.1;1.5;;;;;;;31.83;36.24805;956.4504;;;;
2019/08/09 13:26:32;;;;;;;3.4;1.3;;;;;;;31.84;35.47754;956.4774;;;;
2019/08/09 13:28:57;;;;;;;2.1;1.2;;;;;;;31.6;35.54297;956.4058;;;;
2019/08/09 13:31:22;;;;;;;1.3;1.2;;;;;;;31.47;35.63965;956.394;;;;
2019/08/09 13:33:47;;;;;;;3.1;1.4;;;;;;;31.91;35.62695;956.3221;;;;
2019/08/09 13:36:12;;;;;;;2.7;1.2;;;;;;;31.87;36.08301;956.2968;;;;
2019/08/09 13:38:37;;;;;;;1.4;1.3;;;;;;;31.94;34.74707;956.2333;;;;
2019/08/09 13:41:02;;;;;;;1.8;1.3;;;;;;;31.84;35.68262;956.1941;;;;
2019/08/09 13:43:27;;;;;;;1.9;1.4;;;;;;;32.4;35.1582;956.2234;;;;
2019/08/09 13:45:52;;;;;;;2.5;1.3;;;;;;;32.19;34.92383;956.2134;;;;
2019/08/09 13:48:18;;;;;;;2.4;1.3;;;;;;;32;35.80273;956.2626;;;;
2019/08/09 13:50:43;;;;;;;2.7;1.3;;;;;;;31.89;35.20313;956.2263;;;;
2019/08/09 13:53:08;;;;;;;2.6;1.4;;;;;;;31.88;35.5166;956.2353;;;;
2019/08/09 13:55:33;;;;;;;2;1.6;;;;;;;31.84;35.47754;956.2346;;;;
2019/08/09 13:57:58;;;;;;;2.1;1.5;;;;;;;31.77;35.62891;956.1503;;;;
2019/08/09 14:00:23;;;;;;;3.3;1.4;;;;;;;32.04;35.75781;956.1397;;;;
2019/08/09 14:02:48;;;;;;;2.3;1.1;;;;;;;31.76;36.65332;956.0854;;;;
2019/08/09 14:05:13;;;;;;;2.2;1.2;;;;;;;31.85;35.38086;956.0829;;;;
2019/08/09 14:07:38;;;;;;;1.9;1.2;;;;;;;31.9;35.44531;956.0156;;;;
2019/08/09 14:10:03;;;;;;;1.7;1.3;;;;;;;32.05;34.64746;956.005;;;;
2019/08/09 14:12:28;;;;;;;2.6;1.3;;;;;;;32.01;34.79004;955.926;;;;
2019/08/09 14:14:53;;;;;;;1.7;1.3;;;;;;;32.01;35.5752;955.926;;;;